sensor_id;sensor_type;location;lat;lon;timestamp;pressure;altitude;pressure_sealevel;temperature
63009;BMP280;49099;28.428;-16.488;2022-11-02T00:02:17;99006.53;;;22.88
63009;BMP280;49099;28.428;-16.488;2022-11-02T00:04:47;99002.38;;;22.81
63009;BMP280;49099;28.428;-16.488;2022-11-02T00:07:15;98994.88;;;22.80
63009;BMP280;49099;28.428;-16.488;2022-11-02T00:09:42;98990.69;;;22.79
63009;BMP280;49099;28.428;-16.488;2022-11-02T00:12:09;98998.47;;;22.77
63009;BMP280;49099;28.428;-16.488;2022-11-02T00:14:39;98988.25;;;22.75
63009;BMP280;49099;28.428;-16.488;2022-11-02T00:17:06;98992.88;;;22.75
63009;BMP280;49099;28.428;-16.488;2022-11-02T00:19:33;98994.81;;;22.74
63009;BMP280;49099;28.428;-16.488;2022-11-02T00:22:01;98988.47;;;22.72
63009;BMP280;49099;28.428;-16.488;2022-11-02T00:24:29;98982.63;;;22.73
63009;BMP280;49099;28.428;-16.488;2022-11-02T00:26:58;98983.38;;;22.74
63009;BMP280;49099;28.428;-16.488;2022-11-02T00:29:25;98979.50;;;22.75
63009;BMP280;49099;28.428;-16.488;2022-11-02T00:31:59;98971.44;;;22.75
63009;BMP280;49099;28.428;-16.488;2022-11-02T00:34:26;98967.28;;;22.74
63009;BMP280;49099;28.428;-16.488;2022-11-02T00:36:53;98968.03;;;22.74
63009;BMP280;49099;28.428;-16.488;2022-11-02T00:39:21;98966.09;;;22.75
63009;BMP280;49099;28.428;-16.488;2022-11-02T00:41:48;98965.84;;;22.73
63009;BMP280;49099;28.428;-16.488;2022-11-02T00:44:15;98968.28;;;22.71
63009;BMP280;49099;28.428;-16.488;2022-11-02T00:46:42;98964.13;;;22.70
63009;BMP280;49099;28.428;-16.488;2022-11-02T00:49:09;98963.16;;;22.73
63009;BMP280;49099;28.428;-16.488;2022-11-02T00:51:36;98963.41;;;22.75
63009;BMP280;49099;28.428;-16.488;2022-11-02T00:54:03;98971.44;;;22.75
63009;BMP280;49099;28.428;-16.488;2022-11-02T00:56:30;98963.16;;;22.73
63009;BMP280;49099;28.428;-16.488;2022-11-02T00:58:57;98963.41;;;22.75
63009;BMP280;49099;28.428;-16.488;2022-11-02T01:01:24;98960.75;;;22.75
63009;BMP280;49099;28.428;-16.488;2022-11-02T01:03:52;98956.34;;;22.72
63009;BMP280;49099;28.428;-16.488;2022-11-02T01:06:21;98956.06;;;22.64
63009;BMP280;49099;28.428;-16.488;2022-11-02T01:08:48;98946.09;;;22.59
63009;BMP280;49099;28.428;-16.488;2022-11-02T01:11:20;98945.59;;;22.61
63009;BMP280;49099;28.428;-16.488;2022-11-02T01:13:49;98943.16;;;22.63
63009;BMP280;49099;28.428;-16.488;2022-11-02T01:16:18;98945.84;;;22.63
63009;BMP280;49099;28.428;-16.488;2022-11-02T01:18:45;98945.84;;;22.63
63009;BMP280;49099;28.428;-16.488;2022-11-02T01:21:12;98940.25;;;22.61
63009;BMP280;49099;28.428;-16.488;2022-11-02T01:23:39;98929.78;;;22.63
63009;BMP280;49099;28.428;-16.488;2022-11-02T01:26:08;98935.59;;;22.61
63009;BMP280;49099;28.428;-16.488;2022-11-02T01:28:35;98927.34;;;22.59
63009;BMP280;49099;28.428;-16.488;2022-11-02T01:31:03;98931.22;;;22.58
63009;BMP280;49099;28.428;-16.488;2022-11-02T01:33:30;98922.94;;;22.56
63009;BMP280;49099;28.428;-16.488;2022-11-02T01:35:58;98930.47;;;22.58
63009;BMP280;49099;28.428;-16.488;2022-11-02T01:38:25;98924.41;;;22.57
63009;BMP280;49099;28.428;-16.488;2022-11-02T01:40:52;98917.81;;;22.52
63009;BMP280;49099;28.428;-16.488;2022-11-02T01:46:03;98918.06;;;22.55
63009;BMP280;49099;28.428;-16.488;2022-11-02T01:48:34;98912.72;;;22.55
63009;BMP280;49099;28.428;-16.488;2022-11-02T01:51:08;98913.19;;;22.53
63009;BMP280;49099;28.428;-16.488;2022-11-02T01:53:40;98904.16;;;22.50
63009;BMP280;49099;28.428;-16.488;2022-11-02T01:56:11;98912.94;;;22.51
63009;BMP280;49099;28.428;-16.488;2022-11-02T01:58:42;98909.50;;;22.50
63009;BMP280;49099;28.428;-16.488;2022-11-02T02:01:11;98899.31;;;22.49
63009;BMP280;49099;28.428;-16.488;2022-11-02T02:03:38;98912.69;;;22.49
63009;BMP280;49099;28.428;-16.488;2022-11-02T02:06:10;98903.66;;;22.46
63009;BMP280;49099;28.428;-16.488;2022-11-02T02:08:42;98908.53;;;22.42
63009;BMP280;49099;28.428;-16.488;2022-11-02T02:14:00;98916.31;;;22.40
63009;BMP280;49099;28.428;-16.488;2022-11-02T02:25:22;98934.03;;;22.32
63009;BMP280;49099;28.428;-16.488;2022-11-02T02:30:54;98934.81;;;22.38
63009;BMP280;49099;28.428;-16.488;2022-11-02T02:33:29;98925.81;;;22.41
63009;BMP280;49099;28.428;-16.488;2022-11-02T02:36:14;98924.38;;;22.46
63009;BMP280;49099;28.428;-16.488;2022-11-02T02:38:47;98927.53;;;22.44
63009;BMP280;49099;28.428;-16.488;2022-11-02T02:41:38;98926.31;;;22.45
63009;BMP280;49099;28.428;-16.488;2022-11-02T02:44:13;98919.50;;;22.44
63009;BMP280;49099;28.428;-16.488;2022-11-02T02:46:45;98921.91;;;22.42
63009;BMP280;49099;28.428;-16.488;2022-11-02T02:49:37;98925.53;;;22.39
63009;BMP280;49099;28.428;-16.488;2022-11-02T02:52:05;98922.13;;;22.33
63009;BMP280;49099;28.428;-16.488;2022-11-02T02:54:36;98918.72;;;22.33
63009;BMP280;49099;28.428;-16.488;2022-11-02T02:57:14;98921.13;;;22.36
63009;BMP280;49099;28.428;-16.488;2022-11-02T02:59:44;98922.38;;;22.35
63009;BMP280;49099;28.428;-16.488;2022-11-02T03:02:16;98920.91;;;22.34
63009;BMP280;49099;28.428;-16.488;2022-11-02T03:04:45;98912.16;;;22.34
63009;BMP280;49099;28.428;-16.488;2022-11-02T03:07:16;98920.19;;;22.34
63009;BMP280;49099;28.428;-16.488;2022-11-02T03:10:27;98912.16;;;22.34
63009;BMP280;49099;28.428;-16.488;2022-11-02T03:15:23;98934.03;;;22.32
63009;BMP280;49099;28.428;-16.488;2022-11-02T03:20:35;98932.84;;;22.33
63009;BMP280;49099;28.428;-16.488;2022-11-02T03:26:29;98930.16;;;22.33
63009;BMP280;49099;28.428;-16.488;2022-11-02T03:28:39;98926.00;;;22.32
63009;BMP280;49099;28.428;-16.488;2022-11-02T03:31:12;98924.28;;;22.29
63009;BMP280;49099;28.428;-16.488;2022-11-02T03:33:57;98932.31;;;22.29
63009;BMP280;49099;28.428;-16.488;2022-11-02T03:36:32;98933.28;;;22.26
63009;BMP280;49099;28.428;-16.488;2022-11-02T03:39:10;98927.44;;;22.22
63009;BMP280;49099;28.428;-16.488;2022-11-02T03:41:39;98937.41;;;22.22
63009;BMP280;49099;28.428;-16.488;2022-11-02T03:44:18;98931.78;;;22.20
63009;BMP280;49099;28.428;-16.488;2022-11-02T03:46:47;98933.25;;;22.15
63009;BMP280;49099;28.428;-16.488;2022-11-02T03:49:17;98930.06;;;22.17
63009;BMP280;49099;28.428;-16.488;2022-11-02T03:51:46;98927.88;;;22.15
63009;BMP280;49099;28.428;-16.488;2022-11-02T03:54:26;98922.03;;;22.17
63009;BMP280;49099;28.428;-16.488;2022-11-02T03:56:58;98922.53;;;22.15
63009;BMP280;49099;28.428;-16.488;2022-11-02T03:59:30;98923.47;;;22.12
63009;BMP280;49099;28.428;-16.488;2022-11-02T04:01:58;98916.16;;;22.07
63009;BMP280;49099;28.428;-16.488;2022-11-02T04:04:27;98928.00;;;22.01
63009;BMP280;49099;28.428;-16.488;2022-11-02T04:06:54;98923.84;;;21.94
63009;BMP280;49099;28.428;-16.488;2022-11-02T04:09:22;98927.22;;;21.89
63009;BMP280;49099;28.428;-16.488;2022-11-02T04:11:49;98932.78;;;21.86
63009;BMP280;49099;28.428;-16.488;2022-11-02T04:14:34;98926.69;;;21.85
63009;BMP280;49099;28.428;-16.488;2022-11-02T04:17:05;98936.44;;;21.88
63009;BMP280;49099;28.428;-16.488;2022-11-02T04:19:51;98937.00;;;21.92
63009;BMP280;49099;28.428;-16.488;2022-11-02T04:22:19;98932.63;;;21.95
63009;BMP280;49099;28.428;-16.488;2022-11-02T04:25:06;98934.81;;;21.96
63009;BMP280;49099;28.428;-16.488;2022-11-02T04:27:47;98930.44;;;21.99
63009;BMP280;49099;28.428;-16.488;2022-11-02T04:30:17;98923.41;;;22.01
63009;BMP280;49099;28.428;-16.488;2022-11-02T04:32:46;98927.81;;;22.04
63009;BMP280;49099;28.428;-16.488;2022-11-02T04:35:32;98928.31;;;22.08
63009;BMP280;49099;28.428;-16.488;2022-11-02T04:38:00;98921.75;;;22.09
63009;BMP280;49099;28.428;-16.488;2022-11-02T04:40:46;98920.31;;;22.14
63009;BMP280;49099;28.428;-16.488;2022-11-02T04:43:13;98924.22;;;22.18
63009;BMP280;49099;28.428;-16.488;2022-11-02T04:45:40;98921.56;;;22.18
63009;BMP280;49099;28.428;-16.488;2022-11-02T04:48:08;98918.63;;;22.16
63009;BMP280;49099;28.428;-16.488;2022-11-02T04:50:36;98915.69;;;22.14
63009;BMP280;49099;28.428;-16.488;2022-11-02T04:53:04;98917.38;;;22.12
63009;BMP280;49099;28.428;-16.488;2022-11-02T04:55:33;98914.84;;;21.97
63009;BMP280;49099;28.428;-16.488;2022-11-02T04:58:01;98909.19;;;21.84
63009;BMP280;49099;28.428;-16.488;2022-11-02T05:00:28;98899.19;;;21.79
63009;BMP280;49099;28.428;-16.488;2022-11-02T05:02:55;98901.34;;;21.75
63009;BMP280;49099;28.428;-16.488;2022-11-02T05:05:23;98896.97;;;21.72
63009;BMP280;49099;28.428;-16.488;2022-11-02T05:07:50;98902.31;;;21.72
63009;BMP280;49099;28.428;-16.488;2022-11-02T05:10:17;98894.56;;;21.74
63009;BMP280;49099;28.428;-16.488;2022-11-02T05:12:44;98899.19;;;21.79
63009;BMP280;49099;28.428;-16.488;2022-11-02T05:15:11;98904.78;;;21.81
63009;BMP280;49099;28.428;-16.488;2022-11-02T05:17:38;98910.41;;;21.83
63009;BMP280;49099;28.428;-16.488;2022-11-02T05:20:05;98909.00;;;21.88
63009;BMP280;49099;28.428;-16.488;2022-11-02T05:22:35;98900.97;;;21.93
63009;BMP280;49099;28.428;-16.488;2022-11-02T05:25:03;98900.00;;;21.91
63009;BMP280;49099;28.428;-16.488;2022-11-02T05:27:30;98906.06;;;21.86
63009;BMP280;49099;28.428;-16.488;2022-11-02T05:29:57;98898.03;;;21.86
63009;BMP280;49099;28.428;-16.488;2022-11-02T05:32:25;98899.72;;;21.83
63009;BMP280;49099;28.428;-16.488;2022-11-02T05:34:52;98889.72;;;21.78
63009;BMP280;49099;28.428;-16.488;2022-11-02T05:37:19;98893.59;;;21.77
63009;BMP280;49099;28.428;-16.488;2022-11-02T05:39:46;98902.84;;;21.76
63009;BMP280;49099;28.428;-16.488;2022-11-02T05:42:16;98898.66;;;21.70
63009;BMP280;49099;28.428;-16.488;2022-11-02T05:44:43;98909.56;;;21.66
63009;BMP280;49099;28.428;-16.488;2022-11-02T05:47:10;98897.41;;;21.65
63009;BMP280;49099;28.428;-16.488;2022-11-02T05:49:37;98892.06;;;21.65
63009;BMP280;49099;28.428;-16.488;2022-11-02T05:52:04;98895.00;;;21.67
63009;BMP280;49099;28.428;-16.488;2022-11-02T05:54:31;98898.84;;;21.66
63009;BMP280;49099;28.428;-16.488;2022-11-02T05:56:58;98900.06;;;21.65
63009;BMP280;49099;28.428;-16.488;2022-11-02T05:59:25;98898.63;;;21.64
63009;BMP280;49099;28.428;-16.488;2022-11-02T06:01:52;98895.94;;;21.64
63009;BMP280;49099;28.428;-16.488;2022-11-02T06:04:19;98901.06;;;21.68
63009;BMP280;49099;28.428;-16.488;2022-11-02T06:06:46;98906.47;;;21.73
63009;BMP280;49099;28.428;-16.488;2022-11-02T06:09:13;98909.84;;;21.74
63009;BMP280;49099;28.428;-16.488;2022-11-02T06:11:41;98900.34;;;21.67
63009;BMP280;49099;28.428;-16.488;2022-11-02T06:14:08;98908.09;;;21.65
63009;BMP280;49099;28.428;-16.488;2022-11-02T06:16:35;98908.81;;;21.66
63009;BMP280;49099;28.428;-16.488;2022-11-02T06:19:02;98915.84;;;21.63
63009;BMP280;49099;28.428;-16.488;2022-11-02T06:21:29;98907.59;;;21.61
63009;BMP280;49099;28.428;-16.488;2022-11-02T06:23:56;98916.81;;;21.60
63009;BMP280;49099;28.428;-16.488;2022-11-02T06:26:24;98920.69;;;21.59
63009;BMP280;49099;28.428;-16.488;2022-11-02T06:28:51;98928.22;;;21.61
63009;BMP280;49099;28.428;-16.488;2022-11-02T06:31:18;98927.25;;;21.58
63009;BMP280;49099;28.428;-16.488;2022-11-02T06:33:45;98929.91;;;21.58
63009;BMP280;49099;28.428;-16.488;2022-11-02T06:36:13;98932.59;;;21.58
63009;BMP280;49099;28.428;-16.488;2022-11-02T06:38:40;98927.25;;;21.58
63009;BMP280;49099;28.428;-16.488;2022-11-02T06:41:07;98940.59;;;21.58
63009;BMP280;49099;28.428;-16.488;2022-11-02T06:43:34;98937.66;;;21.56
63009;BMP280;49099;28.428;-16.488;2022-11-02T06:46:04;98940.59;;;21.58
63009;BMP280;49099;28.428;-16.488;2022-11-02T06:48:31;98948.41;;;21.62
63009;BMP280;49099;28.428;-16.488;2022-11-02T06:51:02;98951.81;;;21.62
63009;BMP280;49099;28.428;-16.488;2022-11-02T06:53:30;98951.31;;;21.58
63009;BMP280;49099;28.428;-16.488;2022-11-02T06:55:58;98948.16;;;21.60
63009;BMP280;49099;28.428;-16.488;2022-11-02T06:58:26;98959.06;;;21.56
63009;BMP280;49099;28.428;-16.488;2022-11-02T07:01:02;98951.25;;;21.53
63009;BMP280;49099;28.428;-16.488;2022-11-02T07:03:29;98951.94;;;21.48
63009;BMP280;49099;28.428;-16.488;2022-11-02T07:05:57;98968.19;;;21.44
63009;BMP280;49099;28.428;-16.488;2022-11-02T07:08:25;98966.72;;;21.43
63009;BMP280;49099;28.428;-16.488;2022-11-02T07:10:53;98962.84;;;21.44
63009;BMP280;49099;28.428;-16.488;2022-11-02T07:13:20;98965.06;;;21.46
63009;BMP280;49099;28.428;-16.488;2022-11-02T07:15:50;98968.19;;;21.44
63009;BMP280;49099;28.428;-16.488;2022-11-02T07:18:19;98967.94;;;21.42
63009;BMP280;49099;28.428;-16.488;2022-11-02T07:20:46;98972.06;;;21.43
63009;BMP280;49099;28.428;-16.488;2022-11-02T07:23:13;98973.53;;;21.44
63009;BMP280;49099;28.428;-16.488;2022-11-02T07:25:40;98981.81;;;21.46
63009;BMP280;49099;28.428;-16.488;2022-11-02T07:28:07;98996.91;;;21.49
63009;BMP280;49099;28.428;-16.488;2022-11-02T07:30:35;99001.31;;;21.52
63009;BMP280;49099;28.428;-16.488;2022-11-02T07:33:02;98996.94;;;21.55
63009;BMP280;49099;28.428;-16.488;2022-11-02T07:35:30;99001.81;;;21.56
63009;BMP280;49099;28.428;-16.488;2022-11-02T07:38:04;99002.56;;;21.57
63009;BMP280;49099;28.428;-16.488;2022-11-02T07:40:34;99004.78;;;21.58
63009;BMP280;49099;28.428;-16.488;2022-11-02T07:43:02;99002.59;;;21.62
63009;BMP280;49099;28.428;-16.488;2022-11-02T07:45:31;99007.00;;;21.65
63009;BMP280;49099;28.428;-16.488;2022-11-02T07:47:58;99002.38;;;21.66
63009;BMP280;49099;28.428;-16.488;2022-11-02T07:50:25;99011.38;;;21.63
63009;BMP280;49099;28.428;-16.488;2022-11-02T07:52:56;99005.28;;;21.62
63009;BMP280;49099;28.428;-16.488;2022-11-02T07:55:26;99011.38;;;21.63
63009;BMP280;49099;28.428;-16.488;2022-11-02T07:58:02;99001.41;;;21.63
63009;BMP280;49099;28.428;-16.488;2022-11-02T08:00:31;99005.56;;;21.64
63009;BMP280;49099;28.428;-16.488;2022-11-02T08:03:00;99002.66;;;21.68
63009;BMP280;49099;28.428;-16.488;2022-11-02T08:05:30;99002.44;;;21.71
63009;BMP280;49099;28.428;-16.488;2022-11-02T08:08:01;98999.81;;;21.77
63009;BMP280;49099;28.428;-16.488;2022-11-02T08:10:32;98996.44;;;21.82
63009;BMP280;49099;28.428;-16.488;2022-11-02T08:13:04;99009.41;;;21.89
63009;BMP280;49099;28.428;-16.488;2022-11-02T08:15:31;99010.13;;;21.89
63009;BMP280;49099;28.428;-16.488;2022-11-02T08:18:03;99012.59;;;21.93
63009;BMP280;49099;28.428;-16.488;2022-11-02T08:20:32;99011.16;;;21.97
63009;BMP280;49099;28.428;-16.488;2022-11-02T08:22:59;99004.88;;;22.00
63009;BMP280;49099;28.428;-16.488;2022-11-02T08:25:27;99000.03;;;22.04
63009;BMP280;49099;28.428;-16.488;2022-11-02T08:27:58;99019.28;;;22.08
63009;BMP280;49099;28.428;-16.488;2022-11-02T08:30:27;99014.44;;;22.12
63009;BMP280;49099;28.428;-16.488;2022-11-02T08:33:01;99014.94;;;22.16
63009;BMP280;49099;28.428;-16.488;2022-11-02T08:35:29;99014.00;;;22.19
63009;BMP280;49099;28.428;-16.488;2022-11-02T08:37:57;99013.50;;;22.15
63009;BMP280;49099;28.428;-16.488;2022-11-02T08:40:26;99012.03;;;22.14
63009;BMP280;49099;28.428;-16.488;2022-11-02T08:42:59;99011.28;;;22.14
63009;BMP280;49099;28.428;-16.488;2022-11-02T08:45:27;99027.13;;;22.17
63009;BMP280;49099;28.428;-16.488;2022-11-02T08:48:08;99026.88;;;22.21
63009;BMP280;49099;28.428;-16.488;2022-11-02T08:50:35;99027.69;;;22.27
63009;BMP280;49099;28.428;-16.488;2022-11-02T08:53:03;99021.41;;;22.35
63009;BMP280;49099;28.428;-16.488;2022-11-02T08:55:30;99022.16;;;22.41
63009;BMP280;49099;28.428;-16.488;2022-11-02T08:57:58;99027.56;;;22.47
63009;BMP280;49099;28.428;-16.488;2022-11-02T09:00:28;99029.06;;;22.54
63009;BMP280;49099;28.428;-16.488;2022-11-02T09:03:05;99027.88;;;22.60
63009;BMP280;49099;28.428;-16.488;2022-11-02T09:05:34;99023.28;;;22.66
63009;BMP280;49099;28.428;-16.488;2022-11-02T09:08:04;99023.75;;;22.65
63009;BMP280;49099;28.428;-16.488;2022-11-02T09:10:34;99026.16;;;22.63
63009;BMP280;49099;28.428;-16.488;2022-11-02T09:13:04;99037.38;;;22.67
63009;BMP280;49099;28.428;-16.488;2022-11-02T09:15:34;99033.50;;;22.73
63009;BMP280;49099;28.428;-16.488;2022-11-02T09:18:02;99032.81;;;22.78
63009;BMP280;49099;28.428;-16.488;2022-11-02T09:20:30;99030.91;;;22.84
63009;BMP280;49099;28.428;-16.488;2022-11-02T09:22:57;99037.25;;;22.87
63009;BMP280;49099;28.428;-16.488;2022-11-02T09:25:25;99039.19;;;22.92
63009;BMP280;49099;28.428;-16.488;2022-11-02T09:27:53;99038.50;;;22.97
63009;BMP280;49099;28.428;-16.488;2022-11-02T09:30:22;99041.66;;;23.01
63009;BMP280;49099;28.428;-16.488;2022-11-02T09:32:54;99049.47;;;23.04
63009;BMP280;49099;28.428;-16.488;2022-11-02T09:35:22;99050.47;;;23.07
63009;BMP280;49099;28.428;-16.488;2022-11-02T09:37:49;99053.63;;;23.11
63009;BMP280;49099;28.428;-16.488;2022-11-02T09:40:20;99060.72;;;23.14
63009;BMP280;49099;28.428;-16.488;2022-11-02T09:43:03;99063.66;;;23.16
63009;BMP280;49099;28.428;-16.488;2022-11-02T09:45:35;99061.72;;;23.22
63009;BMP280;49099;28.428;-16.488;2022-11-02T09:48:10;99052.69;;;23.25
63009;BMP280;49099;28.428;-16.488;2022-11-02T09:56:33;99055.84;;;23.18
63009;BMP280;49099;28.428;-16.488;2022-11-02T09:59:04;99061.97;;;23.24
63009;BMP280;49099;28.428;-16.488;2022-11-02T10:12:53;99060.47;;;23.12
63009;BMP280;49099;28.428;-16.488;2022-11-02T10:15:38;99063.41;;;23.19
63009;BMP280;49099;28.428;-16.488;2022-11-02T10:18:13;99070.97;;;23.26
63009;BMP280;49099;28.428;-16.488;2022-11-02T10:20:52;99073.44;;;23.30
63009;BMP280;49099;28.428;-16.488;2022-11-02T10:23:39;99079.78;;;23.32
63009;BMP280;49099;28.428;-16.488;2022-11-02T10:26:36;99080.03;;;23.34
63009;BMP280;49099;28.428;-16.488;2022-11-02T10:31:48;99079.25;;;23.28
63009;BMP280;49099;28.428;-16.488;2022-11-02T10:34:22;99082.94;;;23.25
63009;BMP280;49099;28.428;-16.488;2022-11-02T10:37:22;99084.16;;;23.30
63009;BMP280;49099;28.428;-16.488;2022-11-02T10:48:54;99075.44;;;23.57
63009;BMP280;49099;28.428;-16.488;2022-11-02T10:51:23;99075.69;;;23.64
63009;BMP280;49099;28.428;-16.488;2022-11-02T10:53:52;99079.84;;;23.71
63009;BMP280;49099;28.428;-16.488;2022-11-02T10:56:30;99078.13;;;23.79
63009;BMP280;49099;28.428;-16.488;2022-11-02T10:59:13;99071.56;;;23.91
63009;BMP280;49099;28.428;-16.488;2022-11-02T11:04:27;99065.44;;;24.07
63009;BMP280;49099;28.428;-16.488;2022-11-02T11:06:55;99070.84;;;24.12
63009;BMP280;49099;28.428;-16.488;2022-11-02T11:09:28;99083.50;;;24.06
63009;BMP280;49099;28.428;-16.488;2022-11-02T11:12:05;99072.75;;;23.90
63009;BMP280;49099;28.428;-16.488;2022-11-02T11:14:42;99076.44;;;23.87
63009;BMP280;49099;28.428;-16.488;2022-11-02T11:17:33;99073.28;;;23.83
63009;BMP280;49099;28.428;-16.488;2022-11-02T11:20:37;99071.78;;;23.76
63009;BMP280;49099;28.428;-16.488;2022-11-02T11:23:13;99072.28;;;23.75
63009;BMP280;49099;28.428;-16.488;2022-11-02T11:25:42;99082.03;;;23.89
63009;BMP280;49099;28.428;-16.488;2022-11-02T11:28:52;99070.81;;;23.85
63009;BMP280;49099;28.428;-16.488;2022-11-02T11:31:17;99065.47;;;23.85
63009;BMP280;49099;28.428;-16.488;2022-11-02T11:33:55;99069.84;;;23.93
63009;BMP280;49099;28.428;-16.488;2022-11-02T11:36:41;99062.28;;;24.03
63009;BMP280;49099;28.428;-16.488;2022-11-02T11:39:26;99065.97;;;24.05
63009;BMP280;49099;28.428;-16.488;2022-11-02T11:41:54;99062.03;;;24.12
63009;BMP280;49099;28.428;-16.488;2022-11-02T11:44:22;99071.81;;;24.15
63009;BMP280;49099;28.428;-16.488;2022-11-02T11:46:55;99067.13;;;24.21
63009;BMP280;49099;28.428;-16.488;2022-11-02T11:49:28;99064.94;;;24.25
63009;BMP280;49099;28.428;-16.488;2022-11-02T11:52:20;99068.09;;;24.29
63009;BMP280;49099;28.428;-16.488;2022-11-02T11:55:01;99070.78;;;24.23
63009;BMP280;49099;28.428;-16.488;2022-11-02T11:57:44;99070.31;;;24.25
63009;BMP280;49099;28.428;-16.488;2022-11-02T12:00:26;99075.91;;;24.27
63009;BMP280;49099;28.428;-16.488;2022-11-02T12:03:05;99074.97;;;24.19
63009;BMP280;49099;28.428;-16.488;2022-11-02T12:08:23;99075.94;;;23.99
63009;BMP280;49099;28.428;-16.488;2022-11-02T12:16:49;99044.72;;;23.91
63009;BMP280;49099;28.428;-16.488;2022-11-02T12:27:32;99029.59;;;23.88
63009;BMP280;49099;28.428;-16.488;2022-11-02T12:41:52;99009.34;;;24.09
63009;BMP280;49099;28.428;-16.488;2022-11-02T12:44:20;99002.94;;;24.17
63009;BMP280;49099;28.428;-16.488;2022-11-02T12:47:00;99008.09;;;24.21
63009;BMP280;49099;28.428;-16.488;2022-11-02T12:55:36;98992.00;;;24.15
63009;BMP280;49099;28.428;-16.488;2022-11-02T13:00:55;98996.06;;;24.38
63009;BMP280;49099;28.428;-16.488;2022-11-02T13:03:38;98993.38;;;24.44
63009;BMP280;49099;28.428;-16.488;2022-11-02T13:06:14;98981.13;;;24.54
63009;BMP280;49099;28.428;-16.488;2022-11-02T13:08:51;98985.22;;;24.66
63009;BMP280;49099;28.428;-16.488;2022-11-02T13:11:28;98980.09;;;24.68
63009;BMP280;49099;28.428;-16.488;2022-11-02T13:13:57;98984.00;;;24.67
63009;BMP280;49099;28.428;-16.488;2022-11-02T13:19:34;98970.44;;;24.43
63009;BMP280;49099;28.428;-16.488;2022-11-02T13:22:04;98968.66;;;24.56
63009;BMP280;49099;28.428;-16.488;2022-11-02T13:24:39;98975.69;;;24.65
63009;BMP280;49099;28.428;-16.488;2022-11-02T13:27:23;98969.09;;;24.66
63009;BMP280;49099;28.428;-16.488;2022-11-02T13:30:14;98969.34;;;24.68
63009;BMP280;49099;28.428;-16.488;2022-11-02T13:35:38;98978.13;;;24.74
63009;BMP280;49099;28.428;-16.488;2022-11-02T13:40:46;98971.41;;;24.86
63009;BMP280;49099;28.428;-16.488;2022-11-02T13:49:04;98956.47;;;24.96
63009;BMP280;49099;28.428;-16.488;2022-11-02T13:51:43;98958.19;;;24.93
63009;BMP280;49099;28.428;-16.488;2022-11-02T13:54:19;98955.03;;;24.95
63009;BMP280;49099;28.428;-16.488;2022-11-02T13:56:51;98947.19;;;24.97
63009;BMP280;49099;28.428;-16.488;2022-11-02T13:59:24;98946.66;;;25.04
63009;BMP280;49099;28.428;-16.488;2022-11-02T14:01:54;98948.09;;;25.05
63009;BMP280;49099;28.428;-16.488;2022-11-02T14:04:23;98942.47;;;25.08
63009;BMP280;49099;28.428;-16.488;2022-11-02T14:06:54;98940.47;;;25.14
63009;BMP280;49099;28.428;-16.488;2022-11-02T14:09:32;98944.16;;;25.11
63009;BMP280;49099;28.428;-16.488;2022-11-02T14:14:44;98947.69;;;25.25
63009;BMP280;49099;28.428;-16.488;2022-11-02T14:17:13;98943.47;;;25.35
63009;BMP280;49099;28.428;-16.488;2022-11-02T14:22:15;98939.25;;;25.45
63009;BMP280;49099;28.428;-16.488;2022-11-02T14:35:42;98943.59;;;25.72
63009;BMP280;49099;28.428;-16.488;2022-11-02T14:38:35;98952.19;;;25.70
63009;BMP280;49099;28.428;-16.488;2022-11-02T14:46:55;98939.13;;;25.80
63009;BMP280;49099;28.428;-16.488;2022-11-02T14:49:28;98931.16;;;25.69
63009;BMP280;49099;28.428;-16.488;2022-11-02T14:54:41;98929.81;;;25.57
63009;BMP280;49099;28.428;-16.488;2022-11-02T14:57:34;98926.31;;;25.67
63009;BMP280;49099;28.428;-16.488;2022-11-02T15:00:17;98918.16;;;25.73
63009;BMP280;49099;28.428;-16.488;2022-11-02T15:02:45;98918.16;;;25.73
63009;BMP280;49099;28.428;-16.488;2022-11-02T15:05:26;98916.13;;;25.79
63009;BMP280;49099;28.428;-16.488;2022-11-02T15:08:02;98911.31;;;25.72
63009;BMP280;49099;28.428;-16.488;2022-11-02T15:16:13;98901.44;;;25.80
63009;BMP280;49099;28.428;-16.488;2022-11-02T15:18:37;98909.63;;;25.93
63009;BMP280;49099;28.428;-16.488;2022-11-02T15:26:49;98906.44;;;26.32
63009;BMP280;49099;28.428;-16.488;2022-11-02T15:29:40;98915.69;;;26.36
63009;BMP280;49099;28.428;-16.488;2022-11-02T15:32:17;98911.63;;;26.48
63009;BMP280;49099;28.428;-16.488;2022-11-02T15:34:50;98913.28;;;26.51
63009;BMP280;49099;28.428;-16.488;2022-11-02T15:37:21;98919.59;;;26.54
63009;BMP280;49099;28.428;-16.488;2022-11-02T15:39:54;98919.53;;;26.59
63009;BMP280;49099;28.428;-16.488;2022-11-02T15:42:31;98920.97;;;26.60
63009;BMP280;49099;28.428;-16.488;2022-11-02T15:51:19;98920.97;;;26.60
63009;BMP280;49099;28.428;-16.488;2022-11-02T16:04:46;98914.59;;;26.76
63009;BMP280;49099;28.428;-16.488;2022-11-02T16:07:14;98919.38;;;26.70
63009;BMP280;49099;28.428;-16.488;2022-11-02T16:09:44;98912.81;;;26.66
63009;BMP280;49099;28.428;-16.488;2022-11-02T16:12:18;98920.25;;;26.60
63009;BMP280;49099;28.428;-16.488;2022-11-02T16:15:10;98916.44;;;26.55
63009;BMP280;49099;28.428;-16.488;2022-11-02T16:17:38;98919.69;;;26.48
63009;BMP280;49099;28.428;-16.488;2022-11-02T16:20:18;98919.63;;;26.35
63009;BMP280;49099;28.428;-16.488;2022-11-02T16:22:56;98916.91;;;26.35
63009;BMP280;49099;28.428;-16.488;2022-11-02T16:30:57;98915.09;;;26.93
63009;BMP280;49099;28.428;-16.488;2022-11-02T16:33:26;98916.97;;;26.98
63009;BMP280;49099;28.428;-16.488;2022-11-02T16:35:55;98917.81;;;27.06
63009;BMP280;49099;28.428;-16.488;2022-11-02T16:38:22;98915.34;;;27.08
63009;BMP280;49099;28.428;-16.488;2022-11-02T16:40:50;98926.63;;;27.07
63009;BMP280;49099;28.428;-16.488;2022-11-02T16:43:18;98916.59;;;27.07
63009;BMP280;49099;28.428;-16.488;2022-11-02T16:45:48;98918.38;;;27.18
63009;BMP280;49099;28.428;-16.488;2022-11-02T16:51:16;98930.66;;;27.00
63009;BMP280;49099;28.428;-16.488;2022-11-02T16:53:44;98929.81;;;26.92
63009;BMP280;49099;28.428;-16.488;2022-11-02T16:56:28;98932.47;;;26.79
63009;BMP280;49099;28.428;-16.488;2022-11-02T16:59:03;98941.50;;;26.63
63009;BMP280;49099;28.428;-16.488;2022-11-02T17:01:34;98931.75;;;26.60